No.16 Zen Maru — JJ3834 — position and weather

sailwx.info

Track history (hours):
 
Tides and Currents Weather Stations Pressure Air Temp Water Temp Dewpoint Dewpoint Depression Visibility Wind Speed Wind Dir Waves Ship Positions

No.16 Zen Maru

Last reported at 2018-Jan-20 12:21 UTC. Time now 2018-Jan-20 21:06 UTC.
Position N 34°43' E 134°44'.

Length 70 m.

Type: Ship. MMSI: 431300421.

Date/timePositionNaut miles runAvg speedWind from/ knotsBaromVisibWave heightAir tempDewpointWater temp
2018-Jan-20 12:21N 34°43' E 134°44'411.2
2018-Jan-20 11:59N 34°41' E 134°49'1 0.2
2018-Jan-20 05:18N 34°42' E 134°50'0 0.0
2018-Jan-20 05:00N 34°42' E 134°50'0 0.0
2018-Jan-20 04:24N 34°42' E 134°50'0 0.0
2018-Jan-20 03:48N 34°42' E 134°50'0 0.0
2018-Jan-20 03:30N 34°42' E 134°50'0 0.0
2018-Jan-20 03:00N 34°42' E 134°50'1 1.6
2018-Jan-20 02:23N 34°43' E 134°51'3 6.7
2018-Jan-20 02:00N 34°40' E 134°50'713.3
2018-Jan-20 01:30N 34°38' E 134°58'714.0
2018-Jan-20 01:00N 34°37' E 135°06'3 5.1
2018-Jan-20 00:28N 34°39' E 135°09'0 0.0
2018-Jan-19 23:58N 34°39' E 135°09'0 0.0
2018-Jan-19 23:28N 34°39' E 135°09'0 0.0
2018-Jan-19 22:58N 34°39' E 135°09'0 0.0
2018-Jan-19 22:28N 34°39' E 135°09'0 0.0
2018-Jan-19 21:58N 34°39' E 135°09'1 1.5
2018-Jan-19 21:29N 34°38' E 135°09'0 0.0
2018-Jan-19 20:58N 34°38' E 135°09'0 0.0
2018-Jan-19 20:28N 34°38' E 135°09'0 0.0
2018-Jan-19 19:58N 34°38' E 135°09'0 0.0
2018-Jan-19 19:28N 34°38' E 135°09'0 0.0
2018-Jan-19 18:58N 34°38' E 135°09'0 0.0
2018-Jan-19 18:28N 34°38' E 135°09'0 0.0
2018-Jan-19 17:58N 34°38' E 135°09'0 0.0
2018-Jan-19 17:28N 34°38' E 135°09'0 0.0
2018-Jan-19 16:58N 34°38' E 135°09'0 0.0
2018-Jan-19 16:28N 34°38' E 135°09'0 0.0
2018-Jan-19 15:58N 34°38' E 135°09'0 0.0
2018-Jan-19 15:28N 34°38' E 135°09'0 0.0
2018-Jan-19 14:58N 34°38' E 135°09'0 0.0
2018-Jan-19 14:28N 34°38' E 135°09'0 0.0
2018-Jan-19 13:58N 34°38' E 135°09'0 0.0
2018-Jan-19 13:28N 34°38' E 135°09'0 0.0
2018-Jan-19 12:58N 34°38' E 135°09'0 0.0
2018-Jan-19 12:28N 34°38' E 135°09'0 0.0
2018-Jan-19 11:58N 34°38' E 135°09'0 0.0
2018-Jan-19 11:28N 34°38' E 135°09'0 0.0
2018-Jan-19 10:58N 34°38' E 135°09'0 0.0
2018-Jan-19 10:30N 34°38' E 135°09'2 4.4
2018-Jan-19 10:00N 34°36' E 135°08'5 9.3
2018-Jan-19 09:30N 34°36' E 135°02'611.2
2018-Jan-19 09:00N 34°37' E 134°55'611.1
2018-Jan-19 08:28N 34°41' E 134°50'1 0.2
2018-Jan-19 02:46N 34°42' E 134°50'0 0.0
2018-Jan-19 02:22N 34°42' E 134°50'0 0.0
2018-Jan-18 21:14N 34°42' E 134°50'14 0.8
2018-Jan-18 03:31N 34°41' E 134°33'411.8
2018-Jan-18 03:11N 34°41' E 134°38'312.2
2018-Jan-18 02:58N 34°40' E 134°41'612.3
2018-Jan-18 02:29N 34°39' E 134°48'613.0
2018-Jan-18 02:00N 34°37' E 134°55'714.3
2018-Jan-18 01:30N 34°36' E 135°04'612.0
2018-Jan-18 01:00N 34°30' E 135°04'1313.2
2018-Jan-18 00:00N 34°17' E 134°60'113.4
2018-Jan-17 23:57N 34°17' E 134°59'  
2018-Jan-12 08:01N 33°54' E 135°02'110.9
2018-Jan-12 07:58N 33°55' E 135°02'711.1
2018-Jan-12 07:20N 34°02' E 135°00'411.0
2018-Jan-12 06:58N 34°06' E 135°00'511.1
2018-Jan-12 06:30N 34°11' E 134°59'611.4
2018-Jan-12 06:00N 34°16' E 134°59'611.0
2018-Jan-12 05:30N 34°22' E 134°59'511.2
2018-Jan-12 05:01N 34°27' E 135°01'611.1
2018-Jan-12 04:30N 34°33' E 135°02'5 9.2
2018-Jan-12 04:00N 34°37' E 134°60'611.4
2018-Jan-12 03:30N 34°38' E 134°53'5 1.1
2018-Jan-11 22:44N 34°42' E 134°50'1 0.1
2018-Jan-11 01:59N 34°43' E 134°51'4 7.3
2018-Jan-11 01:29N 34°39' E 134°52'510.5
2018-Jan-11 01:00N 34°38' E 134°57'510.0
2018-Jan-11 00:29N 34°36' E 135°03'510.8
2018-Jan-11 00:00N 34°39' E 135°09'0 0.7
2018-Jan-10 23:30N 34°39' E 135°09'0 0.0
2018-Jan-10 23:01N 34°39' E 135°09'0 0.0
2018-Jan-10 22:30N 34°39' E 135°09'0 0.0
2018-Jan-10 22:00N 34°39' E 135°09'0 0.0
2018-Jan-10 21:31N 34°39' E 135°09'0 0.0
2018-Jan-10 21:00N 34°39' E 135°09'1 2.6
2018-Jan-10 20:29N 34°37' E 135°09'5 9.6
2018-Jan-10 20:01N 34°35' E 135°04'4 8.5
2018-Jan-10 19:31N 34°37' E 134°59'4 8.7
2018-Jan-10 19:00N 34°38' E 134°54'5 9.5
2018-Jan-10 18:30N 34°41' E 134°50'  
Track history (hours):
 
Tides and Currents Weather Stations Pressure Air Temp Water Temp Dewpoint Dewpoint Depression Visibility Wind Speed Wind Dir Waves Ship Positions

No.16 Zen Maru

Last reported at 2018-Jan-20 12:21 UTC. Time now 2018-Jan-20 21:06 UTC.
Position N 34°43' E 134°44'.

Length 70 m.

Type: Ship. MMSI: 431300421.

Date/timePositionNaut miles runAvg speedWind from/ knotsBaromVisibWave heightAir tempDewpointWater temp
2018-Jan-20 12:21N 34°43' E 134°44'411.2
2018-Jan-20 11:59N 34°41' E 134°49'1 0.2
2018-Jan-20 05:18N 34°42' E 134°50'0 0.0
2018-Jan-20 05:00N 34°42' E 134°50'0 0.0
2018-Jan-20 04:24N 34°42' E 134°50'0 0.0
2018-Jan-20 03:48N 34°42' E 134°50'0 0.0
2018-Jan-20 03:30N 34°42' E 134°50'0 0.0
2018-Jan-20 03:00N 34°42' E 134°50'1 1.6
2018-Jan-20 02:23N 34°43' E 134°51'3 6.7
2018-Jan-20 02:00N 34°40' E 134°50'713.3
2018-Jan-20 01:30N 34°38' E 134°58'714.0
2018-Jan-20 01:00N 34°37' E 135°06'3 5.1
2018-Jan-20 00:28N 34°39' E 135°09'0 0.0
2018-Jan-19 23:58N 34°39' E 135°09'0 0.0
2018-Jan-19 23:28N 34°39' E 135°09'0 0.0
2018-Jan-19 22:58N 34°39' E 135°09'0 0.0
2018-Jan-19 22:28N 34°39' E 135°09'0 0.0
2018-Jan-19 21:58N 34°39' E 135°09'1 1.5
2018-Jan-19 21:29N 34°38' E 135°09'0 0.0
2018-Jan-19 20:58N 34°38' E 135°09'0 0.0
2018-Jan-19 20:28N 34°38' E 135°09'0 0.0
2018-Jan-19 19:58N 34°38' E 135°09'0 0.0
2018-Jan-19 19:28N 34°38' E 135°09'0 0.0
2018-Jan-19 18:58N 34°38' E 135°09'0 0.0
2018-Jan-19 18:28N 34°38' E 135°09'0 0.0
2018-Jan-19 17:58N 34°38' E 135°09'0 0.0
2018-Jan-19 17:28N 34°38' E 135°09'0 0.0
2018-Jan-19 16:58N 34°38' E 135°09'0 0.0
2018-Jan-19 16:28N 34°38' E 135°09'0 0.0
2018-Jan-19 15:58N 34°38' E 135°09'0 0.0
2018-Jan-19 15:28N 34°38' E 135°09'0 0.0
2018-Jan-19 14:58N 34°38' E 135°09'0 0.0
2018-Jan-19 14:28N 34°38' E 135°09'0 0.0
2018-Jan-19 13:58N 34°38' E 135°09'0 0.0
2018-Jan-19 13:28N 34°38' E 135°09'0 0.0
2018-Jan-19 12:58N 34°38' E 135°09'0 0.0
2018-Jan-19 12:28N 34°38' E 135°09'0 0.0
2018-Jan-19 11:58N 34°38' E 135°09'0 0.0
2018-Jan-19 11:28N 34°38' E 135°09'0 0.0
2018-Jan-19 10:58N 34°38' E 135°09'0 0.0
2018-Jan-19 10:30N 34°38' E 135°09'2 4.4
2018-Jan-19 10:00N 34°36' E 135°08'5 9.3
2018-Jan-19 09:30N 34°36' E 135°02'611.2
2018-Jan-19 09:00N 34°37' E 134°55'611.1
2018-Jan-19 08:28N 34°41' E 134°50'1 0.2
2018-Jan-19 02:46N 34°42' E 134°50'0 0.0
2018-Jan-19 02:22N 34°42' E 134°50'0 0.0
2018-Jan-18 21:14N 34°42' E 134°50'14 0.8
2018-Jan-18 03:31N 34°41' E 134°33'411.8
2018-Jan-18 03:11N 34°41' E 134°38'312.2
2018-Jan-18 02:58N 34°40' E 134°41'612.3
2018-Jan-18 02:29N 34°39' E 134°48'613.0
2018-Jan-18 02:00N 34°37' E 134°55'714.3
2018-Jan-18 01:30N 34°36' E 135°04'612.0
2018-Jan-18 01:00N 34°30' E 135°04'1313.2
2018-Jan-18 00:00N 34°17' E 134°60'113.4
2018-Jan-17 23:57N 34°17' E 134°59'  
2018-Jan-12 08:01N 33°54' E 135°02'110.9
2018-Jan-12 07:58N 33°55' E 135°02'711.1
2018-Jan-12 07:20N 34°02' E 135°00'411.0
2018-Jan-12 06:58N 34°06' E 135°00'511.1
2018-Jan-12 06:30N 34°11' E 134°59'611.4
2018-Jan-12 06:00N 34°16' E 134°59'611.0
2018-Jan-12 05:30N 34°22' E 134°59'511.2
2018-Jan-12 05:01N 34°27' E 135°01'611.1
2018-Jan-12 04:30N 34°33' E 135°02'5 9.2
2018-Jan-12 04:00N 34°37' E 134°60'611.4
2018-Jan-12 03:30N 34°38' E 134°53'5 1.1
2018-Jan-11 22:44N 34°42' E 134°50'1 0.1
2018-Jan-11 01:59N 34°43' E 134°51'4 7.3
2018-Jan-11 01:29N 34°39' E 134°52'510.5
2018-Jan-11 01:00N 34°38' E 134°57'510.0
2018-Jan-11 00:29N 34°36' E 135°03'510.8
2018-Jan-11 00:00N 34°39' E 135°09'0 0.7
2018-Jan-10 23:30N 34°39' E 135°09'0 0.0
2018-Jan-10 23:01N 34°39' E 135°09'0 0.0
2018-Jan-10 22:30N 34°39' E 135°09'0 0.0
2018-Jan-10 22:00N 34°39' E 135°09'0 0.0
2018-Jan-10 21:31N 34°39' E 135°09'0 0.0
2018-Jan-10 21:00N 34°39' E 135°09'1 2.6
2018-Jan-10 20:29N 34°37' E 135°09'5 9.6
2018-Jan-10 20:01N 34°35' E 135°04'4 8.5
2018-Jan-10 19:31N 34°37' E 134°59'4 8.7
2018-Jan-10 19:00N 34°38' E 134°54'5 9.5
2018-Jan-10 18:30N 34°41' E 134°50'  

Dump ship's entire track history